Time;durP1;ratioP1;P1;durP2;ratioP2;P2;SDS_P1;SDS_P2;PMS_P1;PMS_P2;Temp;Humidity;BMP_temperature;BMP_pressure;BME280_temperature;BME280_humidity;BME280_pressure;Samples;Min_cycle;Max_cycle;Signal;HPM_P1;HPM_P2
2022/08/20 00:01:05;;;;;;;2.78;1.35;;;21.80;99.90;;;;;;5091535;28;20107;-63
2022/08/20 00:03:37;;;;;;;1.42;1.20;;;21.70;99.90;;;;;;5091724;28;20013;-63
2022/08/20 00:06:12;;;;;;;2.03;1.30;;;21.70;99.90;;;;;;5091903;28;20031;-63
2022/08/20 00:08:38;;;;;;;2.55;1.00;;;21.70;99.90;;;;;;5091827;28;20032;-63
2022/08/20 00:11:06;;;;;;;1.92;1.30;;;21.70;99.90;;;;;;5091714;28;20020;-63
2022/08/20 00:13:38;;;;;;;1.92;1.20;;;21.70;99.90;;;;;;5092006;28;20034;-63
2022/08/20 00:16:05;;;;;;;1.40;1.30;;;21.60;99.90;;;;;;5091549;28;20020;-63
2022/08/20 00:18:30;;;;;;;1.40;1.30;;;21.60;99.90;;;;;;5095181;28;20031;-63
2022/08/20 00:20:57;;;;;;;2.30;1.10;;;21.60;99.90;;;;;;5095303;28;20028;-62
2022/08/20 00:23:23;;;;;;;1.65;1.20;;;21.60;99.90;;;;;;5095399;28;20038;-63
2022/08/20 00:25:51;;;;;;;2.80;1.13;;;21.50;99.90;;;;;;5095168;28;20027;-63
2022/08/20 00:28:17;;;;;;;1.80;1.00;;;21.50;99.90;;;;;;5095073;28;20119;-63
2022/08/20 00:30:44;;;;;;;1.40;1.15;;;21.50;99.90;;;;;;5095027;28;20101;-62
2022/08/20 00:33:14;;;;;;;2.72;1.27;;;21.50;99.90;;;;;;5095572;28;20020;-63
2022/08/20 00:35:44;;;;;;;2.50;1.30;;;21.40;99.90;;;;;;5095050;28;20024;-63
2022/08/20 00:38:10;;;;;;;1.17;1.08;;;21.50;99.90;;;;;;5094818;28;20107;-63
2022/08/20 00:40:40;;;;;;;1.83;1.10;;;21.40;99.90;;;;;;5094985;28;20400;-63
2022/08/20 00:43:27;;;;;;;2.25;1.15;;;21.40;99.90;;;;;;5094674;28;20032;-63
2022/08/20 00:45:56;;;;;;;1.20;1.00;;;21.40;99.90;;;;;;5094990;28;20044;-63
2022/08/20 00:48:30;;;;;;;1.40;1.30;;;21.40;99.90;;;;;;5094768;28;20552;-63
2022/08/20 00:51:06;;;;;;;3.03;1.30;;;21.30;99.90;;;;;;5094845;28;20031;-63
2022/08/20 00:53:33;;;;;;;1.65;1.30;;;21.30;99.90;;;;;;5095066;28;20498;-63
2022/08/20 00:55:59;;;;;;;2.13;1.40;;;21.30;99.90;;;;;;5094687;28;20016;-63
2022/08/20 00:58:27;;;;;;;2.47;1.30;;;21.30;99.90;;;;;;5094084;28;20366;-63
2022/08/20 01:00:54;;;;;;;2.55;1.35;;;21.30;99.90;;;;;;5094577;28;20032;-63
2022/08/20 01:03:20;;;;;;;2.90;1.33;;;21.30;99.90;;;;;;5094652;28;20020;-63
2022/08/20 01:05:50;;;;;;;2.28;1.40;;;21.20;99.90;;;;;;5095024;28;20051;-63
2022/08/20 01:08:18;;;;;;;2.05;1.10;;;21.20;99.90;;;;;;5094329;28;20036;-63
2022/08/20 01:10:47;;;;;;;3.17;1.42;;;21.30;99.90;;;;;;5094311;28;20024;-63
2022/08/20 01:13:17;;;;;;;3.08;1.30;;;21.20;99.90;;;;;;5094360;28;20038;-63
2022/08/20 01:15:46;;;;;;;1.80;1.45;;;21.20;99.90;;;;;;5094742;28;20535;-63
2022/08/20 01:18:18;;;;;;;2.50;1.40;;;21.20;99.90;;;;;;5094060;28;20020;-63
2022/08/20 01:20:50;;;;;;;2.05;1.48;;;21.20;99.90;;;;;;5094607;28;20063;-63
2022/08/20 01:23:52;;;;;;;2.28;1.50;;;21.10;99.90;;;;;;5094284;28;20511;-63
2022/08/20 01:26:25;;;;;;;2.17;1.50;;;21.10;99.90;;;;;;5093932;28;20499;-63
2022/08/20 01:29:04;;;;;;;2.53;1.80;;;21.10;99.90;;;;;;5093214;28;20164;-63
2022/08/20 01:31:33;;;;;;;2.95;1.80;;;21.10;99.90;;;;;;5093995;28;20035;-63
2022/08/20 01:34:01;;;;;;;2.58;2.10;;;21.10;99.90;;;;;;5094175;28;20130;-63
2022/08/20 01:36:32;;;;;;;3.30;2.30;;;21.10;99.90;;;;;;5094416;28;20028;-63
2022/08/20 01:38:59;;;;;;;3.13;2.42;;;21.10;99.90;;;;;;5093769;28;20113;-63
2022/08/20 01:41:50;;;;;;;2.60;2.20;;;21.10;99.90;;;;;;5093559;28;20385;-63
2022/08/20 01:44:18;;;;;;;3.78;2.55;;;21.00;99.90;;;;;;5093566;28;20044;-63
2022/08/20 01:46:46;;;;;;;3.80;2.50;;;21.00;99.90;;;;;;5093880;28;20032;-63
2022/08/20 01:49:31;;;;;;;3.13;2.50;;;21.00;99.90;;;;;;5093733;28;20020;-62
2022/08/20 01:52:06;;;;;;;4.07;2.47;;;21.00;99.90;;;;;;5093714;28;20024;-63
2022/08/20 01:54:33;;;;;;;5.38;2.60;;;21.00;99.90;;;;;;5093684;28;20477;-63
2022/08/20 01:57:04;;;;;;;3.78;2.35;;;20.90;99.90;;;;;;5093215;28;20154;-63
2022/08/20 01:59:30;;;;;;;3.40;2.45;;;20.90;99.90;;;;;;5093584;28;20451;-63
2022/08/20 02:01:57;;;;;;;3.17;2.60;;;20.90;99.90;;;;;;5094036;28;20103;-63
2022/08/20 02:04:24;;;;;;;4.25;2.50;;;20.90;99.90;;;;;;5093546;28;20205;-63
2022/08/20 02:06:53;;;;;;;3.90;2.60;;;20.90;99.90;;;;;;5093175;28;20448;-63
2022/08/20 02:09:20;;;;;;;4.18;2.50;;;20.80;99.90;;;;;;5093403;28;20107;-63
2022/08/20 02:11:46;;;;;;;3.25;2.70;;;20.80;99.90;;;;;;5093110;28;20028;-63
2022/08/20 02:14:13;;;;;;;3.35;2.75;;;20.80;99.90;;;;;;5093375;28;20031;-63
2022/08/20 02:16:42;;;;;;;3.58;2.60;;;20.80;99.90;;;;;;5093638;28;20044;-63
2022/08/20 02:19:13;;;;;;;3.22;2.42;;;20.80;99.90;;;;;;5093078;28;20228;-63
2022/08/20 02:21:48;;;;;;;3.50;3.13;;;20.80;99.90;;;;;;5093117;28;20387;-63
2022/08/20 02:24:14;;;;;;;5.03;2.97;;;20.70;99.90;;;;;;5092928;28;20370;-63
2022/08/20 02:26:40;;;;;;;3.58;2.70;;;20.70;99.90;;;;;;5093015;28;20028;-63
2022/08/20 02:29:09;;;;;;;3.03;2.75;;;20.70;99.90;;;;;;5092979;28;20032;-63
2022/08/20 02:31:36;;;;;;;3.20;2.72;;;20.70;99.90;;;;;;5093149;28;20157;-63
2022/08/20 02:34:05;;;;;;;3.95;2.95;;;20.70;99.90;;;;;;5093312;28;20073;-63
2022/08/20 02:36:31;;;;;;;2.80;2.60;;;20.70;99.90;;;;;;5092785;28;20024;-63
2022/08/20 02:38:57;;;;;;;3.25;2.95;;;20.60;99.90;;;;;;5092534;28;20024;-63
2022/08/20 02:41:23;;;;;;;2.97;2.70;;;20.60;99.90;;;;;;5091975;28;20028;-63
2022/08/20 02:43:50;;;;;;;3.40;2.90;;;20.60;99.90;;;;;;5092542;28;20052;-63
2022/08/20 02:46:18;;;;;;;3.35;3.05;;;20.60;99.90;;;;;;5092606;28;20589;-62
2022/08/20 02:48:44;;;;;;;3.47;3.05;;;20.60;99.90;;;;;;5092593;28;20118;-63
2022/08/20 02:51:10;;;;;;;6.47;3.22;;;20.60;99.90;;;;;;5093059;28;20024;-63
2022/08/20 02:53:41;;;;;;;3.22;2.92;;;20.60;99.90;;;;;;5092085;28;20030;-63
2022/08/20 02:56:08;;;;;;;4.25;3.05;;;20.60;99.90;;;;;;5092636;28;20016;-63
2022/08/20 02:58:34;;;;;;;4.80;3.03;;;20.50;99.90;;;;;;5108149;28;20020;-63
2022/08/20 03:01:02;;;;;;;3.15;2.85;;;20.50;99.90;;;;;;5092928;28;20366;-63
2022/08/20 03:03:28;;;;;;;3.63;2.90;;;20.50;99.90;;;;;;5092346;28;20028;-63
2022/08/20 03:05:56;;;;;;;5.10;3.08;;;20.50;99.90;;;;;;5092448;28;20031;-62
2022/08/20 03:08:22;;;;;;;2.70;2.50;;;20.50;99.90;;;;;;5091955;28;20512;-63
2022/08/20 03:10:50;;;;;;;3.13;2.83;;;20.50;99.90;;;;;;5092359;28;20028;-63
2022/08/20 03:13:17;;;;;;;2.90;2.70;;;20.50;99.90;;;;;;5092600;28;20477;-63
2022/08/20 03:15:52;;;;;;;2.97;2.65;;;20.40;99.90;;;;;;5092275;28;20032;-63
2022/08/20 03:18:19;;;;;;;3.78;2.80;;;20.40;99.90;;;;;;5092017;28;20028;-63
2022/08/20 03:20:46;;;;;;;3.22;2.92;;;20.40;99.90;;;;;;5092275;28;20031;-63
2022/08/20 03:23:12;;;;;;;3.05;2.85;;;20.40;99.90;;;;;;5091721;28;20052;-63
2022/08/20 03:25:38;;;;;;;3.67;2.63;;;20.30;99.90;;;;;;5092106;28;20082;-63
2022/08/20 03:28:04;;;;;;;2.72;2.53;;;20.30;99.90;;;;;;5092500;28;20489;-63
2022/08/20 03:30:30;;;;;;;3.28;2.50;;;20.30;99.90;;;;;;5092185;28;20514;-63
2022/08/20 03:32:56;;;;;;;3.50;2.38;;;20.30;99.90;;;;;;5092204;28;20051;-63
2022/08/20 03:35:25;;;;;;;4.68;2.90;;;20.30;99.90;;;;;;5092059;28;20048;-63
2022/08/20 03:37:52;;;;;;;3.13;2.83;;;20.20;99.90;;;;;;5091690;28;20523;-62
2022/08/20 03:40:26;;;;;;;3.78;2.60;;;20.20;99.90;;;;;;5092308;28;20066;-63
2022/08/20 03:42:52;;;;;;;3.15;2.80;;;20.20;99.90;;;;;;5092283;28;20036;-63
2022/08/20 03:45:19;;;;;;;2.40;2.20;;;20.20;99.90;;;;;;5091631;28;20539;-63
2022/08/20 03:47:45;;;;;;;2.85;2.60;;;20.20;99.90;;;;;;5091804;28;20075;-63
2022/08/20 03:50:12;;;;;;;3.10;2.45;;;20.20;99.90;;;;;;5092412;28;20433;-63
2022/08/20 03:52:38;;;;;;;3.88;2.60;;;20.20;99.90;;;;;;5093996;28;20028;-63
2022/08/20 03:55:07;;;;;;;2.72;2.53;;;20.20;99.90;;;;;;5095878;28;20024;-62
2022/08/20 03:57:34;;;;;;;3.30;2.20;;;20.20;99.90;;;;;;5096325;28;20031;-63
2022/08/20 04:00:01;;;;;;;2.45;2.08;;;20.20;99.90;;;;;;5095819;28;20031;-62
2022/08/20 04:02:27;;;;;;;2.63;2.42;;;20.20;99.90;;;;;;5095939;28;20032;-62
2022/08/20 04:04:53;;;;;;;3.42;2.60;;;20.20;99.90;;;;;;5095814;28;20141;-63
2022/08/20 04:07:26;;;;;;;2.28;2.10;;;20.20;99.90;;;;;;5095470;28;20032;-62
2022/08/20 04:09:54;;;;;;;3.13;2.20;;;20.20;99.90;;;;;;5111994;28;20048;-63
2022/08/20 04:12:20;;;;;;;2.28;2.08;;;20.20;99.90;;;;;;5095441;28;20110;-62
2022/08/20 04:14:46;;;;;;;2.60;2.40;;;20.20;99.90;;;;;;5095678;28;20012;-63
2022/08/20 04:17:13;;;;;;;2.28;2.08;;;20.20;99.90;;;;;;5095951;28;20078;-63
2022/08/20 04:19:39;;;;;;;3.08;2.33;;;20.20;99.90;;;;;;5095341;28;20047;-63
2022/08/20 04:22:06;;;;;;;2.53;2.30;;;20.20;99.90;;;;;;5095184;28;20066;-63
2022/08/20 04:24:33;;;;;;;3.00;2.40;;;20.20;99.90;;;;;;5095199;28;20381;-63
2022/08/20 04:27:01;;;;;;;2.70;2.28;;;20.20;99.90;;;;;;5095296;28;20062;-63
2022/08/20 04:29:27;;;;;;;2.92;2.60;;;20.20;99.90;;;;;;5095316;28;20377;-62
2022/08/20 04:31:54;;;;;;;2.42;2.13;;;20.20;99.90;;;;;;5110967;28;20400;-63
2022/08/20 04:34:20;;;;;;;2.78;2.33;;;20.20;99.90;;;;;;5095443;28;20048;-63
2022/08/20 04:36:46;;;;;;;3.20;2.00;;;20.20;99.90;;;;;;5094732;28;20063;-63
2022/08/20 04:39:15;;;;;;;2.42;2.22;;;20.10;99.90;;;;;;5095292;28;20020;-62
2022/08/20 04:41:42;;;;;;;2.65;2.03;;;20.20;99.90;;;;;;5095181;28;20043;-63
2022/08/20 04:44:09;;;;;;;2.22;2.10;;;20.10;99.90;;;;;;5094906;28;20042;-63
2022/08/20 04:46:36;;;;;;;2.35;2.15;;;20.10;99.90;;;;;;5094768;28;20036;-63
2022/08/20 04:49:03;;;;;;;2.60;2.40;;;20.10;99.90;;;;;;5094899;28;20024;-63
2022/08/20 04:51:29;;;;;;;3.00;2.40;;;20.10;99.90;;;;;;5094409;28;20493;-63
2022/08/20 04:53:56;;;;;;;3.20;2.22;;;20.10;99.90;;;;;;5095387;28;20028;-62
2022/08/20 04:56:27;;;;;;;3.25;1.98;;;20.10;99.90;;;;;;5094742;28;20020;-63
2022/08/20 04:58:56;;;;;;;2.25;2.05;;;20.10;99.90;;;;;;5094668;28;20122;-63
2022/08/20 05:01:22;;;;;;;2.88;2.30;;;20.10;99.90;;;;;;5094674;28;20035;-63
2022/08/20 05:03:48;;;;;;;2.88;2.20;;;20.10;99.90;;;;;;5093257;28;20537;-63
2022/08/20 05:06:16;;;;;;;2.20;2.00;;;20.10;99.90;;;;;;5094504;28;20032;-63
2022/08/20 05:08:42;;;;;;;3.55;2.10;;;20.10;99.90;;;;;;5094409;28;20408;-63
2022/08/20 05:11:09;;;;;;;2.67;2.20;;;20.10;99.90;;;;;;5094832;28;20021;-63
2022/08/20 05:13:35;;;;;;;2.40;2.20;;;20.10;99.90;;;;;;5094253;28;20032;-62
2022/08/20 05:16:02;;;;;;;2.20;2.00;;;20.00;99.90;;;;;;5094862;28;20020;-63
2022/08/20 05:18:31;;;;;;;3.58;2.10;;;20.00;99.90;;;;;;5093743;28;20389;-62
2022/08/20 05:21:02;;;;;;;2.80;2.00;;;20.10;99.90;;;;;;5094308;28;20024;-62
2022/08/20 05:23:28;;;;;;;2.85;2.05;;;20.10;99.90;;;;;;5094323;28;20036;-62
2022/08/20 05:25:56;;;;;;;2.30;2.10;;;20.10;99.90;;;;;;5094256;28;20074;-62
2022/08/20 05:28:31;;;;;;;2.53;2.10;;;20.10;99.90;;;;;;5093928;28;20032;-63
2022/08/20 05:30:58;;;;;;;2.67;2.15;;;20.10;99.90;;;;;;5094224;28;20027;-62
2022/08/20 05:33:24;;;;;;;2.30;2.10;;;20.10;99.90;;;;;;5093702;28;20084;-63
2022/08/20 05:35:52;;;;;;;3.42;2.20;;;20.10;99.90;;;;;;5093937;28;20028;-62
2022/08/20 05:38:20;;;;;;;3.40;1.98;;;20.10;99.90;;;;;;5093837;28;20075;-63
2022/08/20 05:40:47;;;;;;;4.22;2.08;;;20.10;99.90;;;;;;5093761;28;20035;-62
2022/08/20 05:43:13;;;;;;;2.58;1.98;;;20.10;99.90;;;;;;5093697;28;20052;-62
2022/08/20 05:45:41;;;;;;;2.20;2.00;;;20.10;99.90;;;;;;5093518;28;20055;-62
2022/08/20 05:48:10;;;;;;;2.33;2.10;;;20.10;99.90;;;;;;5093134;28;20036;-63
2022/08/20 05:50:38;;;;;;;2.97;1.98;;;20.20;99.90;;;;;;5093743;28;20024;-63
2022/08/20 05:53:04;;;;;;;2.50;2.30;;;20.20;99.90;;;;;;5093803;28;20016;-63
2022/08/20 05:55:29;;;;;;;2.47;2.00;;;20.20;99.90;;;;;;5093955;28;20020;-63
2022/08/20 05:58:00;;;;;;;2.40;1.92;;;20.30;99.90;;;;;;5093569;28;20308;-63
2022/08/20 06:00:28;;;;;;;2.47;2.00;;;20.30;99.90;;;;;;5093672;28;20059;-62
2022/08/20 06:05:39;;;;;;;3.40;2.00;;;20.40;99.90;;;;;;5093660;28;20031;-62
2022/08/20 06:08:06;;;;;;;2.25;1.92;;;20.50;99.90;;;;;;5093630;28;20042;-62
2022/08/20 06:10:33;;;;;;;2.53;1.90;;;20.50;99.90;;;;;;5093222;28;20035;-62
2022/08/20 06:12:59;;;;;;;2.15;1.60;;;20.50;99.90;;;;;;5093154;28;20458;-63
2022/08/20 06:15:25;;;;;;;2.42;1.88;;;20.60;99.90;;;;;;5093137;28;20104;-62
2022/08/20 06:17:51;;;;;;;2.60;1.90;;;20.70;99.90;;;;;;5092591;28;20104;-62
2022/08/20 06:20:17;;;;;;;2.33;1.90;;;21.00;99.90;;;;;;5093167;28;20024;-61
2022/08/20 06:22:43;;;;;;;2.90;1.80;;;21.10;99.90;;;;;;5093387;28;20035;-61
2022/08/20 06:25:09;;;;;;;3.38;1.80;;;21.20;99.90;;;;;;5108355;28;20412;-61
2022/08/20 06:27:41;;;;;;;4.13;1.80;;;21.20;99.90;;;;;;5092829;28;20059;-61
2022/08/20 06:30:10;;;;;;;3.40;1.70;;;21.30;99.90;;;;;;5093337;28;20027;-61
2022/08/20 06:32:35;;;;;;;2.00;1.73;;;21.30;99.90;;;;;;5092230;28;20028;-61
2022/08/20 06:35:04;;;;;;;2.15;1.63;;;21.40;99.90;;;;;;5092925;28;20024;-61
2022/08/20 06:37:35;;;;;;;3.17;1.70;;;21.40;99.90;;;;;;5093031;28;20039;-61
2022/08/20 06:40:08;;;;;;;1.88;1.77;;;21.40;99.90;;;;;;5092527;28;20031;-61
2022/08/20 06:42:34;;;;;;;3.33;1.52;;;21.40;99.90;;;;;;5092968;28;20135;-61
2022/08/20 06:45:03;;;;;;;2.03;1.73;;;21.40;99.90;;;;;;5108411;28;20560;-61
2022/08/20 06:47:30;;;;;;;2.78;1.80;;;21.40;99.90;;;;;;5092043;28;20047;-61
2022/08/20 06:49:56;;;;;;;3.03;1.90;;;21.40;99.90;;;;;;5092636;28;20447;-61
2022/08/20 06:52:21;;;;;;;1.77;1.67;;;21.50;99.90;;;;;;5092578;28;20020;-61
2022/08/20 06:54:47;;;;;;;3.05;1.60;;;21.50;99.90;;;;;;5092485;28;20440;-61
2022/08/20 06:57:13;;;;;;;3.25;1.80;;;21.50;99.90;;;;;;5092497;28;20076;-61
2022/08/20 06:59:40;;;;;;;2.13;1.83;;;21.70;99.90;;;;;;5092292;28;20039;-61
2022/08/20 07:02:06;;;;;;;2.08;1.60;;;22.20;99.90;;;;;;5092032;28;20024;-61
2022/08/20 07:04:32;;;;;;;3.53;2.30;;;22.60;99.90;;;;;;5092474;28;20100;-61
2022/08/20 07:06:58;;;;;;;2.22;1.88;;;22.90;99.90;;;;;;5092624;28;20305;-61
2022/08/20 07:09:25;;;;;;;3.40;1.58;;;22.80;99.90;;;;;;5092484;28;20028;-61
2022/08/20 07:11:51;;;;;;;1.80;1.50;;;22.90;99.90;;;;;;5092276;28;20023;-61
2022/08/20 07:14:17;;;;;;;2.42;1.70;;;23.20;99.90;;;;;;5091817;28;20024;-61
2022/08/20 07:16:45;;;;;;;4.72;1.60;;;23.30;99.90;;;;;;5092549;28;20017;-61
2022/08/20 07:19:12;;;;;;;2.17;1.60;;;24.60;99.90;;;;;;5092218;28;20123;-61
2022/08/20 07:21:39;;;;;;;1.88;1.60;;;25.60;99.90;;;;;;5092185;28;20024;-61
2022/08/20 07:24:05;;;;;;;1.60;1.40;;;26.50;99.90;;;;;;5092184;28;20107;-61
2022/08/20 07:26:31;;;;;;;2.53;1.50;;;27.90;99.90;;;;;;5092971;28;20584;-61
2022/08/20 07:28:57;;;;;;;2.20;1.40;;;28.70;99.90;;;;;;5095888;28;20032;-61
2022/08/20 07:34:07;;;;;;;2.08;1.13;;;29.50;99.90;;;;;;5096647;28;20039;-61
2022/08/20 07:36:33;;;;;;;1.58;1.40;;;28.90;99.90;;;;;;5096145;28;20032;-61
2022/08/20 07:39:00;;;;;;;1.98;1.30;;;27.00;99.90;;;;;;5096511;28;20030;-61
2022/08/20 07:41:26;;;;;;;1.38;1.10;;;27.20;99.90;;;;;;5096258;28;20020;-61
2022/08/20 07:43:52;;;;;;;2.10;1.48;;;27.30;99.90;;;;;;5095684;28;20051;-61
2022/08/20 07:46:20;;;;;;;2.72;1.45;;;27.00;99.90;;;;;;5095998;28;20610;-61
2022/08/20 07:48:48;;;;;;;2.00;1.30;;;27.20;99.90;;;;;;5095633;28;20123;-62
2022/08/20 07:51:16;;;;;;;2.90;1.40;;;26.20;99.90;;;;;;5096437;28;20016;-61
2022/08/20 07:53:42;;;;;;;3.13;1.50;;;26.20;99.90;;;;;;5095815;28;20028;-61
2022/08/20 07:56:15;;;;;;;2.17;1.50;;;26.10;99.90;;;;;;5095792;28;20024;-61
2022/08/20 07:58:48;;;;;;;2.58;1.45;;;26.00;99.90;;;;;;5095857;28;20020;-61
2022/08/20 08:01:21;;;;;;;2.15;1.38;;;25.80;99.90;;;;;;5095804;28;20100;-61
2022/08/20 08:03:47;;;;;;;;;;;25.60;99.90;;;;;;5096108;28;20088;-61
2022/08/20 08:06:13;;;;;;;2.65;1.30;;;25.30;99.90;;;;;;5095625;28;19995;-61
2022/08/20 08:08:40;;;;;;;1.95;1.40;;;25.00;99.90;;;;;;5095579;28;20032;-61
2022/08/20 08:11:06;;;;;;;1.58;1.23;;;24.90;99.90;;;;;;5096003;28;20622;-61
2022/08/20 08:13:38;;;;;;;1.20;1.10;;;25.00;99.90;;;;;;5094960;28;20031;-61
2022/08/20 08:16:08;;;;;;;2.83;1.38;;;24.80;99.90;;;;;;5095537;28;20491;-61
2022/08/20 08:18:42;;;;;;;1.88;1.10;;;25.10;99.90;;;;;;5095079;28;20489;-61
2022/08/20 08:21:11;;;;;;;1.88;1.20;;;25.00;99.90;;;;;;5095243;28;20039;-61
2022/08/20 08:23:39;;;;;;;15.88;14.18;;;25.00;99.90;;;;;;5095637;28;20107;-61
2022/08/20 08:26:05;;;;;;;368.02;333.10;;;25.00;99.90;;;;;;5095311;28;20023;-62
2022/08/20 08:28:31;;;;;;;516.67;466.33;;;24.50;99.90;;;;;;5094818;28;20031;-61
2022/08/20 08:30:57;;;;;;;26.58;23.98;;;24.40;99.90;;;;;;5095235;28;20492;-61
2022/08/20 08:33:29;;;;;;;335.95;303.83;;;24.80;99.90;;;;;;5094422;28;20210;-62
2022/08/20 08:35:58;;;;;;;198.43;179.00;;;24.90;99.90;;;;;;5094839;28;20020;-61
2022/08/20 08:38:24;;;;;;;165.60;149.57;;;24.80;99.90;;;;;;5095263;28;20048;-61
2022/08/20 08:40:53;;;;;;;6.32;4.03;;;24.80;99.90;;;;;;5094275;28;20512;-61
2022/08/20 08:43:24;;;;;;;29.95;27.08;;;25.00;99.90;;;;;;5094542;28;20020;-61
2022/08/20 08:46:00;;;;;;;121.82;110.30;;;25.00;99.90;;;;;;5094152;28;20032;-61
2022/08/20 08:48:34;;;;;;;87.10;78.60;;;25.20;99.90;;;;;;5094523;28;20044;-62
2022/08/20 08:51:01;;;;;;;19.50;17.52;;;24.50;99.90;;;;;;5094576;28;20024;-62
2022/08/20 08:53:32;;;;;;;33.47;30.27;;;24.70;99.90;;;;;;5094685;28;20497;-62
2022/08/20 08:55:59;;;;;;;3.95;3.42;;;24.90;99.90;;;;;;5093902;28;20065;-62
2022/08/20 08:58:26;;;;;;;6.45;5.00;;;25.00;99.90;;;;;;5094389;28;20047;-62
2022/08/20 09:00:52;;;;;;;1.77;1.50;;;25.10;99.90;;;;;;5094336;28;20106;-62
2022/08/20 09:03:28;;;;;;;16.20;14.55;;;25.10;99.90;;;;;;5094695;28;20099;-62
2022/08/20 09:05:58;;;;;;;12.13;11.02;;;24.90;99.90;;;;;;5094740;28;20039;-62
2022/08/20 09:08:28;;;;;;;10.15;9.13;;;24.90;99.90;;;;;;5094412;28;20036;-62
2022/08/20 09:10:59;;;;;;;11.52;10.32;;;24.80;99.90;;;;;;5094028;28;20020;-61
2022/08/20 09:13:25;;;;;;;15.95;14.45;;;25.10;99.90;;;;;;5094364;28;20554;-62
2022/08/20 09:15:51;;;;;;;5.68;4.57;;;24.50;99.90;;;;;;5094345;28;20050;-62
2022/08/20 09:18:16;;;;;;;4.38;3.17;;;24.50;99.90;;;;;;5094707;28;20396;-62
2022/08/20 09:20:42;;;;;;;16.45;14.82;;;24.30;99.90;;;;;;5094337;28;20054;-62
2022/08/20 09:23:08;;;;;;;3.85;1.60;;;24.70;99.90;;;;;;5094186;28;20039;-62
2022/08/20 09:25:33;;;;;;;8.10;7.22;;;25.10;99.90;;;;;;5093712;28;20020;-62
2022/08/20 09:27:59;;;;;;;3.95;3.10;;;24.70;99.90;;;;;;5092882;28;20035;-62
2022/08/20 09:30:25;;;;;;;5.75;4.18;;;24.40;99.90;;;;;;5094139;28;20027;-62
2022/08/20 09:32:51;;;;;;;12.57;10.95;;;24.90;99.90;;;;;;5094152;28;20055;-62
2022/08/20 09:35:16;;;;;;;11.70;10.27;;;24.80;99.90;;;;;;5094328;28;20028;-62
2022/08/20 09:37:42;;;;;;;4.30;3.90;;;24.80;99.90;;;;;;5093845;28;20024;-62
2022/08/20 09:40:09;;;;;;;5.35;3.72;;;24.90;99.90;;;;;;5093239;28;20024;-62
2022/08/20 09:42:37;;;;;;;7.28;5.72;;;25.10;99.90;;;;;;5093680;28;20488;-62
2022/08/20 09:45:03;;;;;;;7.88;6.55;;;25.00;99.90;;;;;;5094182;28;20040;-62
2022/08/20 09:47:29;;;;;;;2.17;1.20;;;25.10;99.90;;;;;;5093587;28;20433;-62
2022/08/20 09:49:54;;;;;;;2.42;1.20;;;25.80;99.90;;;;;;5093112;28;20062;-61
2022/08/20 09:52:27;;;;;;;2.65;1.10;;;25.60;99.90;;;;;;5093581;28;20028;-62
2022/08/20 09:54:57;;;;;;;7.00;6.32;;;26.20;99.90;;;;;;5093177;28;20016;-62
2022/08/20 09:57:24;;;;;;;8.20;7.40;;;26.00;99.90;;;;;;5093898;28;20102;-62
2022/08/20 09:59:55;;;;;;;5.97;5.40;;;25.90;99.90;;;;;;5093424;28;20711;-61
2022/08/20 10:02:22;;;;;;;8.30;7.45;;;26.80;99.90;;;;;;5093310;28;20103;-61
2022/08/20 10:04:48;;;;;;;2.17;1.10;;;26.40;99.90;;;;;;5093458;28;20020;-62
2022/08/20 10:07:14;;;;;;;7.85;7.15;;;27.20;99.90;;;;;;5093346;28;20047;-62
2022/08/20 10:09:39;;;;;;;7.82;7.00;;;26.70;99.90;;;;;;5092831;28;20035;-62
2022/08/20 10:12:05;;;;;;;7.88;7.28;;;25.60;99.90;;;;;;5093653;28;20027;-62
2022/08/20 10:14:31;;;;;;;7.70;6.95;;;25.90;99.90;;;;;;5093250;28;20488;-62
2022/08/20 10:16:58;;;;;;;2.42;1.38;;;25.90;99.90;;;;;;5093316;28;20020;-62
2022/08/20 10:19:24;;;;;;;6.10;5.55;;;26.80;99.90;;;;;;5093207;28;20032;-62
2022/08/20 10:21:51;;;;;;;6.45;5.68;;;26.40;99.90;;;;;;5093009;28;20495;-62
2022/08/20 10:24:18;;;;;;;5.80;5.30;;;25.90;99.90;;;;;;5092624;28;20028;-62
2022/08/20 10:26:44;;;;;;;6.03;5.53;;;25.60;99.90;;;;;;5093111;28;20047;-62
2022/08/20 10:29:09;;;;;;;6.18;5.57;;;25.60;99.90;;;;;;5093347;28;20504;-62
2022/08/20 10:31:35;;;;;;;5.82;5.22;;;25.50;99.90;;;;;;5076479;28;20115;-61
2022/08/20 10:34:01;;;;;;;4.85;4.45;;;25.50;99.90;;;;;;5085947;28;20135;-62
2022/08/20 10:36:26;;;;;;;1.48;1.20;;;25.50;99.90;;;;;;5092426;28;20548;-61
2022/08/20 10:38:52;;;;;;;3.85;2.40;;;26.00;99.90;;;;;;5092156;28;20020;-61
2022/08/20 10:41:18;;;;;;;6.50;2.50;;;26.60;99.90;;;;;;5092863;28;20435;-62
2022/08/20 10:43:44;;;;;;;3.80;1.92;;;26.30;99.90;;;;;;5092027;28;20262;-61
2022/08/20 10:46:10;;;;;;;1.52;1.00;;;26.00;99.90;;;;;;5092556;28;20039;-61
2022/08/20 10:48:36;;;;;;;2.22;1.30;;;25.90;99.90;;;;;;5086616;28;20098;-61
2022/08/20 10:51:03;;;;;;;2.97;1.55;;;26.00;99.90;;;;;;5088333;28;20020;-62
2022/08/20 10:53:29;;;;;;;1.67;1.20;;;26.00;99.90;;;;;;5091643;28;20027;-62
2022/08/20 10:55:56;;;;;;;1.77;1.27;;;25.90;99.90;;;;;;5091895;28;20020;-62
2022/08/20 10:58:22;;;;;;;4.28;1.20;;;26.80;99.90;;;;;;5088918;28;20024;-63
2022/08/20 11:00:48;;;;;;;2.60;2.40;;;26.80;99.90;;;;;;5090273;28;20114;-63
2022/08/20 11:03:14;;;;;;;1.40;1.30;;;27.30;99.90;;;;;;5092136;28;20064;-62
2022/08/20 11:05:40;;;;;;;1.58;1.42;;;26.90;99.90;;;;;;5092125;28;20054;-62
2022/08/20 11:08:05;;;;;;;1.85;1.30;;;26.40;99.90;;;;;;5091904;28;20120;-62
2022/08/20 11:10:33;;;;;;;1.48;1.27;;;26.60;99.90;;;;;;5092162;28;20035;-62
2022/08/20 11:13:00;;;;;;;2.30;1.58;;;27.00;99.90;;;;;;5091697;28;20534;-63
2022/08/20 11:15:26;;;;;;;1.95;1.38;;;26.40;99.90;;;;;;5092128;28;20581;-62
2022/08/20 11:17:52;;;;;;;9.68;1.90;;;26.90;99.90;;;;;;5091532;28;20515;-60
2022/08/20 11:20:20;;;;;;;4.15;2.10;;;26.90;99.90;;;;;;5092297;28;20024;-62
2022/08/20 11:22:46;;;;;;;3.65;1.67;;;27.60;99.90;;;;;;5091508;28;20063;-61
2022/08/20 11:25:12;;;;;;;2.85;1.60;;;27.50;99.90;;;;;;5092046;28;20054;-61
2022/08/20 11:27:45;;;;;;;3.08;1.60;;;27.50;99.90;;;;;;5091936;28;20064;-60
2022/08/20 11:30:19;;;;;;;5.40;1.50;;;27.30;99.90;;;;;;5090279;28;20027;-59
2022/08/20 11:32:44;;;;;;;;;;;27.90;99.90;;;;;;5092109;28;20036;-58
2022/08/20 11:35:10;;;;;;;1.48;1.38;;;27.10;99.90;;;;;;5092258;28;19974;-59
2022/08/20 11:37:36;;;;;;;2.13;1.33;;;27.40;99.90;;;;;;5091376;28;20044;-58
2022/08/20 11:40:03;;;;;;;1.52;1.42;;;27.70;99.90;;;;;;5091937;28;20103;-59
2022/08/20 11:42:29;;;;;;;2.63;1.40;;;27.70;99.90;;;;;;5091987;28;20552;-62
2022/08/20 11:44:54;;;;;;;3.00;1.48;;;27.30;99.90;;;;;;5091566;28;20131;-61
2022/08/20 11:47:23;;;;;;;2.17;1.13;;;27.50;99.90;;;;;;5092305;28;20388;-61
2022/08/20 11:49:58;;;;;;;4.15;1.67;;;27.20;99.90;;;;;;5091379;28;20119;-62
2022/08/20 11:52:24;;;;;;;5.13;1.70;;;27.20;99.90;;;;;;5091916;28;20020;-61
2022/08/20 11:54:50;;;;;;;1.73;1.40;;;27.40;99.90;;;;;;5092121;28;20028;-61
2022/08/20 11:57:30;;;;;;;1.65;1.48;;;26.70;99.90;;;;;;5091875;28;20028;-61
2022/08/20 11:59:58;;;;;;;1.55;1.30;;;27.40;99.90;;;;;;5091773;28;20008;-61
2022/08/20 12:02:25;;;;;;;3.42;1.33;;;27.60;99.90;;;;;;5091692;28;20103;-62
2022/08/20 12:04:51;;;;;;;2.72;1.10;;;27.90;99.90;;;;;;5091118;28;20021;-61
2022/08/20 12:07:20;;;;;;;4.85;1.45;;;28.20;99.90;;;;;;5091739;28;20038;-62
2022/08/20 12:09:46;;;;;;;3.92;1.35;;;28.60;99.90;;;;;;5091628;28;20572;-62
2022/08/20 12:12:13;;;;;;;5.28;1.40;;;28.10;99.90;;;;;;5091614;28;20032;-62
2022/08/20 12:14:39;;;;;;;3.22;1.58;;;27.50;99.90;;;;;;5095445;28;20042;-62
2022/08/20 12:17:11;;;;;;;1.95;1.30;;;27.10;99.90;;;;;;5094436;28;20173;-61
2022/08/20 12:19:41;;;;;;;1.60;1.20;;;27.40;99.90;;;;;;5094479;28;20408;-62
2022/08/20 12:22:08;;;;;;;2.25;1.50;;;28.20;99.90;;;;;;5095434;28;20067;-62
2022/08/20 12:24:34;;;;;;;3.00;1.50;;;27.60;99.90;;;;;;5095681;28;20034;-62
2022/08/20 12:27:11;;;;;;;3.42;1.50;;;27.30;99.90;;;;;;5095225;28;20047;-62
2022/08/20 12:29:41;;;;;;;2.45;1.33;;;26.90;99.90;;;;;;5095106;28;20031;-61
2022/08/20 12:32:07;;;;;;;2.17;1.30;;;26.90;99.90;;;;;;5095013;28;20481;-61
2022/08/20 12:34:38;;;;;;;2.05;1.48;;;27.10;99.90;;;;;;5093992;28;20082;-62
2022/08/20 12:37:08;;;;;;;1.30;1.20;;;26.80;99.90;;;;;;5094735;28;20095;-67
2022/08/20 12:39:36;;;;;;;3.05;1.33;;;26.80;99.90;;;;;;5095280;28;20060;-62
2022/08/20 12:42:02;;;;;;;8.90;1.77;;;26.80;99.90;;;;;;5095040;28;20020;-61
2022/08/20 12:44:31;;;;;;;2.60;1.27;;;27.30;99.90;;;;;;5094745;28;20052;-62
2022/08/20 12:47:16;;;;;;;4.28;1.80;;;27.10;99.90;;;;;;5094759;28;20020;-61
2022/08/20 12:49:44;;;;;;;1.45;1.30;;;27.10;99.90;;;;;;5094264;28;20400;-62
2022/08/20 12:52:11;;;;;;;4.82;1.90;;;27.70;99.90;;;;;;5094849;28;20020;-62
2022/08/20 12:54:37;;;;;;;2.15;1.65;;;27.40;99.90;;;;;;5094715;28;20035;-61